Time;durP1;ratioP1;P1;durP2;ratioP2;P2;SDS_P1;SDS_P2;PMS_P1;PMS_P2;Temp;Humidity;BMP_temperature;BMP_pressure;BME280_temperature;BME280_humidity;BME280_pressure;Samples;Min_cycle;Max_cycle;Signal;HPM_P1;HPM_P2
2022/06/27 00:00:27;;;;;;;0.40;0.40;;;16.10;99.90;;;;;;4943764;29;20122;-82
2022/06/27 00:02:52;;;;;;;0.10;0.10;;;15.90;99.90;;;;;;4943289;29;20047;-81
2022/06/27 00:05:20;;;;;;;0.10;0.10;;;15.90;99.90;;;;;;4945485;28;20051;-82
2022/06/27 00:07:45;;;;;;;0.10;0.10;;;15.90;99.90;;;;;;4944017;29;20050;-82
2022/06/27 00:10:11;;;;;;;0.00;0.00;;;15.90;99.90;;;;;;4944563;29;20808;-81
2022/06/27 00:12:38;;;;;;;0.07;0.07;;;15.90;99.90;;;;;;4941550;29;20039;-82
2022/06/27 00:15:06;;;;;;;0.10;0.10;;;15.90;99.90;;;;;;4942893;28;20031;-81
2022/06/27 00:17:31;;;;;;;0.10;0.10;;;15.90;99.90;;;;;;4944265;29;20031;-82
2022/06/27 00:19:58;;;;;;;0.00;0.00;;;15.90;99.90;;;;;;4947296;29;20042;-83
2022/06/27 00:22:25;;;;;;;0.10;0.10;;;15.90;99.90;;;;;;4942177;28;20035;-81
2022/06/27 00:24:51;;;;;;;0.00;0.00;;;16.00;99.90;;;;;;4943296;29;20043;-81
2022/06/27 00:27:17;;;;;;;0.00;0.00;;;15.90;99.90;;;;;;4943659;29;20529;-80
2022/06/27 00:29:43;;;;;;;0.20;0.20;;;16.00;99.90;;;;;;4943780;28;20031;-82
2022/06/27 00:32:09;;;;;;;0.30;0.30;;;15.90;99.90;;;;;;4943566;28;20043;-82
2022/06/27 00:34:34;;;;;;;0.20;0.20;;;15.90;99.90;;;;;;4943982;28;20078;-82
2022/06/27 00:37:00;;;;;;;0.10;0.10;;;15.90;99.90;;;;;;4940494;28;20038;-82
2022/06/27 00:39:26;;;;;;;0.00;0.00;;;16.00;99.90;;;;;;4942419;28;20566;-82
2022/06/27 00:41:52;;;;;;;0.33;0.30;;;16.10;99.90;;;;;;4924293;28;20029;-82
2022/06/27 00:44:35;;;;;;;0.10;0.10;;;16.00;99.90;;;;;;4945226;29;20031;-82
2022/06/27 00:47:06;;;;;;;0.25;0.25;;;15.80;99.90;;;;;;4928283;29;20518;-81
2022/06/27 00:49:33;;;;;;;0.22;0.22;;;15.70;99.90;;;;;;4943869;28;20039;-82
2022/06/27 00:51:59;;;;;;;0.00;0.00;;;15.60;99.90;;;;;;4941225;28;20035;-82
2022/06/27 00:54:26;;;;;;;0.07;0.03;;;15.80;99.90;;;;;;4923074;29;20042;-82
2022/06/27 00:56:53;;;;;;;0.32;0.32;;;15.90;99.90;;;;;;4942092;29;20023;-81
2022/06/27 00:59:19;;;;;;;0.10;0.10;;;15.80;99.90;;;;;;4943976;28;20047;-82
2022/06/27 01:01:45;;;;;;;0.00;0.00;;;16.00;99.90;;;;;;4942975;29;20388;-82
2022/06/27 01:04:11;;;;;;;0.10;0.10;;;15.80;99.90;;;;;;4942927;28;20131;-83
2022/06/27 01:06:37;;;;;;;0.10;0.10;;;15.90;99.90;;;;;;4942095;28;20078;-82
2022/06/27 01:09:04;;;;;;;0.00;0.00;;;15.90;99.90;;;;;;4942624;28;20038;-82
2022/06/27 01:11:30;;;;;;;0.10;0.10;;;15.90;99.90;;;;;;4925213;29;20541;-81
2022/06/27 01:13:55;;;;;;;0.00;0.00;;;15.90;99.90;;;;;;4944118;28;20035;-82
2022/06/27 01:16:23;;;;;;;0.00;0.00;;;15.90;99.90;;;;;;4944820;28;20027;-82
2022/06/27 01:18:49;;;;;;;0.10;0.10;;;15.80;99.90;;;;;;4941697;29;20389;-82
2022/06/27 01:21:21;;;;;;;0.00;0.00;;;15.90;99.90;;;;;;4942432;28;20549;-82
2022/06/27 01:23:47;;;;;;;0.00;0.00;;;15.90;99.90;;;;;;4942080;29;20103;-82
2022/06/27 01:26:13;;;;;;;0.10;0.10;;;15.80;99.90;;;;;;4944805;29;20503;-82
2022/06/27 01:28:39;;;;;;;1.47;0.43;;;15.80;99.90;;;;;;4944569;29;20086;-81
2022/06/27 01:31:04;;;;;;;0.10;0.10;;;15.90;99.90;;;;;;4939815;29;20529;-82
2022/06/27 01:33:30;;;;;;;0.00;0.00;;;15.90;99.90;;;;;;4940000;29;20073;-81
2022/06/27 01:38:40;;;;;;;0.30;0.30;;;15.90;99.90;;;;;;4940941;28;20046;-82
2022/06/27 01:41:06;;;;;;;0.10;0.10;;;15.90;99.90;;;;;;4939510;28;20027;-82
2022/06/27 01:43:32;;;;;;;0.20;0.20;;;15.80;99.90;;;;;;4942733;29;20031;-81
2022/06/27 01:45:58;;;;;;;0.00;0.00;;;15.80;99.90;;;;;;4939801;28;20054;-81
2022/06/27 01:48:24;;;;;;;0.03;0.03;;;15.80;99.90;;;;;;4938602;28;20615;-81
2022/06/27 01:50:53;;;;;;;0.05;0.05;;;15.70;99.90;;;;;;4939513;28;20051;-82
2022/06/27 01:53:20;;;;;;;0.00;0.00;;;15.80;99.90;;;;;;4943094;29;20039;-81
2022/06/27 01:55:46;;;;;;;0.20;0.10;;;15.70;99.90;;;;;;4945063;28;20027;-83
2022/06/27 01:58:12;;;;;;;0.30;0.30;;;15.70;99.90;;;;;;4940687;29;20174;-85
2022/06/27 02:00:38;;;;;;;0.00;0.00;;;15.80;99.90;;;;;;4943404;29;20039;-85
2022/06/27 02:03:03;;;;;;;0.10;0.10;;;15.80;99.90;;;;;;4941534;28;20322;-85
2022/06/27 02:05:30;;;;;;;0.00;0.00;;;15.70;99.90;;;;;;4943075;29;20060;-85
2022/06/27 02:07:58;;;;;;;0.10;0.10;;;15.70;99.90;;;;;;4944294;29;20042;-86
2022/06/27 02:10:24;;;;;;;0.00;0.00;;;15.70;99.90;;;;;;4938044;28;20170;-86
2022/06/27 02:12:50;;;;;;;0.00;0.00;;;15.80;99.90;;;;;;4940432;29;20503;-86
2022/06/27 02:15:16;;;;;;;0.00;0.00;;;15.70;99.90;;;;;;4939335;28;20687;-86
2022/06/27 02:17:42;;;;;;;0.17;0.17;;;15.70;99.90;;;;;;4928445;29;20035;-86
2022/06/27 02:20:08;;;;;;;0.20;0.20;;;15.70;99.90;;;;;;4945724;29;20118;-89
2022/06/27 02:22:34;;;;;;;0.00;0.00;;;15.70;99.90;;;;;;4940543;29;20507;-91
2022/06/27 02:24:59;;;;;;;1.63;0.73;;;15.60;99.90;;;;;;4930678;29;20035;-91
2022/06/27 02:27:29;;;;;;;0.10;0.10;;;15.70;99.90;;;;;;4942431;29;20031;-90
2022/06/27 02:29:54;;;;;;;0.10;0.10;;;15.70;99.90;;;;;;4944602;29;20050;-92
2022/06/27 02:32:20;;;;;;;0.00;0.00;;;15.70;99.90;;;;;;4945495;28;20515;-89
2022/06/27 02:34:49;;;;;;;0.10;0.10;;;15.70;99.90;;;;;;4931337;29;20136;-90
2022/06/27 02:37:15;;;;;;;0.22;0.22;;;15.50;99.90;;;;;;4944580;28;20123;-88
2022/06/27 02:39:42;;;;;;;0.10;0.10;;;15.40;99.90;;;;;;4944328;29;20020;-89
2022/06/27 02:42:10;;;;;;;0.10;0.10;;;15.50;99.90;;;;;;4941519;28;20027;-89
2022/06/27 02:44:37;;;;;;;0.10;0.10;;;15.50;99.90;;;;;;4940585;28;20030;-89
2022/06/27 02:47:03;;;;;;;0.00;0.00;;;15.50;99.90;;;;;;4943526;28;20326;-90
2022/06/27 02:49:29;;;;;;;0.10;0.10;;;15.60;99.90;;;;;;4943212;29;20566;-89
2022/06/27 02:52:01;;;;;;;0.00;0.00;;;15.70;99.90;;;;;;4937113;28;20046;-89
2022/06/27 02:55:09;;;;;;;0.20;0.10;;;15.80;99.90;;;;;;4943945;29;20038;-88
2022/06/27 02:57:40;;;;;;;0.52;0.17;;;15.70;99.90;;;;;;4904683;29;20645;-81
2022/06/27 03:00:08;;;;;;;0.20;0.20;;;15.60;99.90;;;;;;4945493;28;20932;-81
2022/06/27 03:02:36;;;;;;;0.05;0.05;;;15.60;99.90;;;;;;4945807;28;20039;-80
2022/06/27 03:05:02;;;;;;;0.10;0.10;;;15.60;99.90;;;;;;4948333;28;20114;-79
2022/06/27 03:07:28;;;;;;;0.10;0.10;;;15.60;99.90;;;;;;4929805;29;20122;-79
2022/06/27 03:09:54;;;;;;;0.10;0.10;;;15.50;99.90;;;;;;4927211;29;20036;-79
2022/06/27 03:12:19;;;;;;;0.10;0.10;;;15.60;99.90;;;;;;4941564;28;20058;-80
2022/06/27 03:14:45;;;;;;;0.47;0.10;;;15.60;99.90;;;;;;4945415;28;20042;-81
2022/06/27 03:17:11;;;;;;;0.10;0.10;;;15.70;99.90;;;;;;4948338;29;20499;-81
2022/06/27 03:19:36;;;;;;;0.00;0.00;;;15.70;99.90;;;;;;4946977;28;20410;-78
2022/06/27 03:22:02;;;;;;;0.00;0.00;;;15.70;99.90;;;;;;4947266;28;20039;-77
2022/06/27 03:24:28;;;;;;;0.00;0.00;;;15.60;99.90;;;;;;4947260;28;20083;-81
2022/06/27 03:26:53;;;;;;;0.00;0.00;;;15.60;99.90;;;;;;4947467;29;20039;-84
2022/06/27 03:29:19;;;;;;;0.10;0.10;;;15.60;99.90;;;;;;4947656;28;20042;-83
2022/06/27 03:31:45;;;;;;;0.00;0.00;;;15.60;99.90;;;;;;4930175;29;20046;-83
2022/06/27 03:34:11;;;;;;;0.00;0.00;;;15.50;99.90;;;;;;4945750;29;20039;-82
2022/06/27 03:36:38;;;;;;;0.00;0.00;;;15.50;99.90;;;;;;4944128;28;20034;-89
2022/06/27 03:39:04;;;;;;;0.00;0.00;;;15.60;99.90;;;;;;4947054;28;20109;-83
2022/06/27 03:41:30;;;;;;;0.00;0.00;;;15.50;99.90;;;;;;4945496;29;20497;-82
2022/06/27 03:43:56;;;;;;;0.37;0.37;;;15.50;99.90;;;;;;4947394;29;20031;-88
2022/06/27 03:46:21;;;;;;;0.00;0.00;;;15.10;99.90;;;;;;4944435;29;20054;-83
2022/06/27 03:51:31;;;;;;;0.00;0.00;;;15.00;99.90;;;;;;4941233;29;20062;-85
2022/06/27 03:53:57;;;;;;;0.00;0.00;;;14.90;99.90;;;;;;4943982;29;20035;-86
2022/06/27 03:56:23;;;;;;;0.10;0.10;;;15.00;99.90;;;;;;4944544;28;20036;-83
2022/06/27 03:58:50;;;;;;;2.07;0.07;;;15.10;99.90;;;;;;4941842;28;20454;-84
2022/06/27 04:01:15;;;;;;;0.00;0.00;;;15.10;99.90;;;;;;4942122;28;20582;-82
2022/06/27 04:03:41;;;;;;;0.00;0.00;;;15.20;99.90;;;;;;4945252;28;20030;-81
2022/06/27 04:06:07;;;;;;;0.10;0.10;;;15.00;99.90;;;;;;4927052;28;20042;-81
2022/06/27 04:08:32;;;;;;;0.57;0.57;;;14.90;99.90;;;;;;4923193;29;20065;-82
2022/06/27 04:10:58;;;;;;;0.67;0.67;;;14.90;99.90;;;;;;4944140;28;20047;-83
2022/06/27 04:13:24;;;;;;;0.10;0.10;;;14.90;99.90;;;;;;4925279;29;20533;-82
2022/06/27 04:15:49;;;;;;;0.17;0.17;;;14.80;99.90;;;;;;4943603;29;20035;-82
2022/06/27 04:18:15;;;;;;;0.00;0.00;;;14.80;99.90;;;;;;4912140;29;20114;-81
2022/06/27 04:20:42;;;;;;;0.00;0.00;;;14.80;99.90;;;;;;4928406;29;20028;-84
2022/06/27 04:23:08;;;;;;;0.45;0.45;;;14.70;99.90;;;;;;4947007;29;20045;-83
2022/06/27 04:25:33;;;;;;;30.50;1.50;;;14.80;99.90;;;;;;4945401;29;20832;-83
2022/06/27 04:27:59;;;;;;;0.00;0.00;;;14.70;99.90;;;;;;4942664;28;20046;-83
2022/06/27 04:30:25;;;;;;;0.10;0.10;;;14.70;99.90;;;;;;4943482;29;20476;-84
2022/06/27 04:32:51;;;;;;;0.20;0.20;;;15.00;99.90;;;;;;4943114;29;20051;-84
2022/06/27 04:35:18;;;;;;;0.10;0.10;;;14.90;99.90;;;;;;4928179;29;20657;-83
2022/06/27 04:37:44;;;;;;;0.80;0.80;;;14.90;99.90;;;;;;4945245;28;20039;-83
2022/06/27 04:40:13;;;;;;;0.10;0.10;;;14.90;99.90;;;;;;4943079;28;20090;-84
2022/06/27 04:42:42;;;;;;;0.10;0.10;;;14.80;99.90;;;;;;4923917;29;20137;-83
2022/06/27 04:45:12;;;;;;;0.00;0.00;;;15.00;99.90;;;;;;4942340;29;20163;-91
2022/06/27 04:47:40;;;;;;;0.68;0.08;;;14.90;99.90;;;;;;4942159;29;20040;-89
2022/06/27 04:50:08;;;;;;;0.10;0.10;;;15.00;99.90;;;;;;4950057;28;20111;-88
2022/06/27 04:52:34;;;;;;;0.00;0.00;;;15.10;99.90;;;;;;4944582;28;20054;-86
2022/06/27 04:55:00;;;;;;;0.20;0.20;;;15.10;99.90;;;;;;4943769;29;20046;-80
2022/06/27 04:57:27;;;;;;;0.20;0.20;;;15.00;99.90;;;;;;4943324;28;20291;-83
2022/06/27 04:59:53;;;;;;;0.20;0.17;;;15.10;99.90;;;;;;4943389;28;20279;-88
2022/06/27 05:02:18;;;;;;;0.00;0.00;;;15.00;99.90;;;;;;4946058;29;20039;-84
2022/06/27 05:04:44;;;;;;;0.00;0.00;;;15.10;99.90;;;;;;4943956;29;20513;-87
2022/06/27 05:07:10;;;;;;;0.10;0.10;;;15.10;99.90;;;;;;4945782;28;20047;-88
2022/06/27 05:09:36;;;;;;;0.13;0.13;;;15.10;99.90;;;;;;4929398;29;20031;-81
2022/06/27 05:12:02;;;;;;;0.20;0.20;;;14.90;99.90;;;;;;4929406;29;20031;-88
2022/06/27 05:14:27;;;;;;;0.10;0.10;;;14.90;99.90;;;;;;4945316;28;20035;-87
2022/06/27 05:16:53;;;;;;;0.10;0.10;;;15.00;99.90;;;;;;4946414;29;20027;-90
2022/06/27 05:19:19;;;;;;;0.00;0.00;;;15.00;99.90;;;;;;4925572;28;20050;-87
2022/06/27 05:21:45;;;;;;;0.10;0.10;;;15.30;99.90;;;;;;4928203;29;20035;-88
2022/06/27 05:24:11;;;;;;;0.05;0.05;;;15.30;99.90;;;;;;4945500;28;20031;-89
2022/06/27 05:26:37;;;;;;;0.00;0.00;;;15.40;99.90;;;;;;4929046;28;20082;-90
2022/06/27 05:29:03;;;;;;;0.10;0.10;;;15.10;99.90;;;;;;4940986;28;20031;-83
2022/06/27 05:31:29;;;;;;;0.20;0.20;;;15.10;99.90;;;;;;4920251;29;20459;-82
2022/06/27 05:33:55;;;;;;;0.10;0.10;;;15.20;99.90;;;;;;4943008;29;20034;-81
2022/06/27 05:36:21;;;;;;;0.10;0.10;;;15.20;99.90;;;;;;4943946;28;20039;-81
2022/06/27 05:38:48;;;;;;;0.15;0.15;;;15.40;99.90;;;;;;4943094;29;20035;-81
2022/06/27 05:41:14;;;;;;;0.30;0.30;;;15.40;99.90;;;;;;4943485;28;20463;-80
2022/06/27 05:43:40;;;;;;;0.75;0.75;;;15.40;99.90;;;;;;4945058;28;20581;-80
2022/06/27 05:46:06;;;;;;;0.20;0.20;;;15.40;99.90;;;;;;4942452;28;20551;-81
2022/06/27 05:48:32;;;;;;;0.00;0.00;;;15.60;99.90;;;;;;4921220;28;20031;-81
2022/06/27 05:50:59;;;;;;;0.10;0.10;;;15.60;99.90;;;;;;4938466;28;22933;-81
2022/06/27 05:53:26;;;;;;;;;;;15.60;99.90;;;;;;4943972;29;20046;-81
2022/06/27 05:56:00;;;;;;;0.10;0.10;;;15.80;99.90;;;;;;4944210;29;19921;-81
2022/06/27 05:58:26;;;;;;;0.10;0.10;;;15.80;99.90;;;;;;4942059;29;20027;-84
2022/06/27 06:00:52;;;;;;;0.10;0.10;;;15.80;99.90;;;;;;4940891;29;20027;-85
2022/06/27 06:03:18;;;;;;;0.20;0.20;;;15.90;99.90;;;;;;4942449;29;20423;-84
2022/06/27 06:05:44;;;;;;;0.00;0.00;;;15.90;99.90;;;;;;4944701;29;20024;-85
2022/06/27 06:08:11;;;;;;;0.00;0.00;;;15.90;99.90;;;;;;4945024;28;20031;-85
2022/06/27 06:10:38;;;;;;;0.00;0.00;;;16.00;99.90;;;;;;4942595;29;20027;-84
2022/06/27 06:13:04;;;;;;;0.10;0.10;;;16.00;99.90;;;;;;4939710;29;20117;-85
2022/06/27 06:15:31;;;;;;;0.10;0.10;;;16.10;99.90;;;;;;4923048;29;20043;-84
2022/06/27 06:17:57;;;;;;;;;;;15.90;99.90;;;;;;4942359;29;20031;-86
2022/06/27 06:20:23;;;;;;;0.00;0.00;;;16.00;99.90;;;;;;4925386;29;19918;-83
2022/06/27 06:22:49;;;;;;;0.37;0.20;;;16.00;99.90;;;;;;4946989;29;20406;-89
2022/06/27 06:25:15;;;;;;;0.10;0.10;;;15.90;99.90;;;;;;4943164;29;20054;-89
2022/06/27 06:27:40;;;;;;;0.10;0.10;;;15.90;99.90;;;;;;4939999;29;20106;-90
2022/06/27 06:30:07;;;;;;;1.13;0.87;;;15.80;99.90;;;;;;4917801;29;20325;-88
2022/06/27 06:32:36;;;;;;;0.20;0.10;;;15.70;99.90;;;;;;4943848;28;20404;-89
2022/06/27 06:35:03;;;;;;;0.10;0.10;;;15.70;99.90;;;;;;4950425;28;20035;-91
2022/06/27 06:37:29;;;;;;;0.00;0.00;;;15.80;99.90;;;;;;4929590;29;20475;-91
2022/06/27 06:39:55;;;;;;;0.10;0.10;;;15.70;99.90;;;;;;4943802;28;20487;-90
2022/06/27 06:42:21;;;;;;;0.00;0.00;;;15.80;99.90;;;;;;4945041;29;20040;-92
2022/06/27 06:44:47;;;;;;;0.63;0.60;;;15.80;99.90;;;;;;4943233;29;20164;-89
2022/06/27 06:47:14;;;;;;;0.00;0.00;;;15.70;99.90;;;;;;4925418;29;20031;-91
2022/06/27 06:49:44;;;;;;;0.00;0.00;;;15.60;99.90;;;;;;4950861;29;20047;-91
2022/06/27 06:52:10;;;;;;;0.20;0.20;;;15.70;99.90;;;;;;4950647;28;20027;-91
2022/06/27 06:54:36;;;;;;;0.07;0.07;;;15.70;99.90;;;;;;4934956;29;20123;-91
2022/06/27 06:57:03;;;;;;;0.05;0.05;;;15.80;99.90;;;;;;4932763;29;20027;-81
2022/06/27 06:59:29;;;;;;;0.00;0.00;;;15.80;99.90;;;;;;4928815;29;20146;-80
2022/06/27 07:01:54;;;;;;;0.20;0.20;;;15.80;99.90;;;;;;4937975;28;20036;-82
2022/06/27 07:04:20;;;;;;;0.40;0.40;;;15.90;99.90;;;;;;4932748;29;20392;-81
2022/06/27 07:06:46;;;;;;;0.03;0.03;;;16.00;99.90;;;;;;4933204;29;20125;-81
2022/06/27 07:09:12;;;;;;;0.20;0.20;;;16.20;99.90;;;;;;4930806;28;20044;-82
2022/06/27 07:11:40;;;;;;;0.10;0.10;;;16.30;99.90;;;;;;4930825;29;20046;-81
2022/06/27 07:14:06;;;;;;;0.03;0.03;;;16.40;99.90;;;;;;4930501;28;20043;-82
2022/06/27 07:16:32;;;;;;;0.28;0.28;;;16.40;99.90;;;;;;4924100;29;20445;-81
2022/06/27 07:19:01;;;;;;;0.10;0.10;;;16.60;99.90;;;;;;4940132;29;20071;-82
2022/06/27 07:21:31;;;;;;;0.10;0.10;;;16.50;99.90;;;;;;4936000;29;20508;-82
2022/06/27 07:23:57;;;;;;;0.13;0.13;;;16.60;99.90;;;;;;4931786;28;20062;-81
2022/06/27 07:26:23;;;;;;;2.00;0.50;;;16.90;99.90;;;;;;4931792;28;20053;-82
2022/06/27 07:28:51;;;;;;;0.10;0.10;;;17.00;99.90;;;;;;4931897;29;20067;-82
2022/06/27 07:31:18;;;;;;;0.00;0.00;;;17.20;99.90;;;;;;4932706;29;20028;-82
2022/06/27 07:33:45;;;;;;;;;;;17.30;99.90;;;;;;4946127;28;20511;-81
2022/06/27 07:36:15;;;;;;;0.55;0.35;;;17.10;99.90;;;;;;4942194;28;19922;-82
2022/06/27 07:38:46;;;;;;;0.10;0.10;;;17.10;99.90;;;;;;4926426;28;20497;-82
2022/06/27 07:41:14;;;;;;;0.03;0.03;;;17.20;99.90;;;;;;4940002;29;20041;-82
2022/06/27 07:43:40;;;;;;;0.20;0.20;;;17.30;99.90;;;;;;4938245;28;20042;-82
2022/06/27 07:46:07;;;;;;;0.10;0.10;;;17.10;99.90;;;;;;4936096;29;20030;-81
2022/06/27 07:48:33;;;;;;;0.10;0.10;;;16.90;99.90;;;;;;4938208;29;20127;-81
2022/06/27 07:51:00;;;;;;;0.55;0.20;;;17.10;99.90;;;;;;4929813;29;20063;-82
2022/06/27 07:53:26;;;;;;;0.05;0.05;;;17.00;99.90;;;;;;4929772;29;20044;-82
2022/06/27 07:55:59;;;;;;;0.20;0.20;;;16.80;99.90;;;;;;4930404;29;20019;-92
2022/06/27 07:58:33;;;;;;;0.30;0.30;;;16.60;99.90;;;;;;4939949;29;20054;-93
2022/06/27 08:01:01;;;;;;;0.47;0.10;;;16.70;99.90;;;;;;4941088;29;20074;-91
2022/06/27 08:03:36;;;;;;;0.10;0.10;;;17.00;99.90;;;;;;4925288;29;20057;-91
2022/06/27 08:06:15;;;;;;;0.08;0.08;;;17.00;99.90;;;;;;4944514;29;20035;-91
2022/06/27 08:08:53;;;;;;;0.45;0.40;;;17.20;99.90;;;;;;4939170;28;20039;-91
2022/06/27 08:11:25;;;;;;;9.23;0.55;;;17.40;99.90;;;;;;4919738;29;20035;-92
2022/06/27 08:13:53;;;;;;;0.00;0.00;;;18.10;99.90;;;;;;4932855;29;20078;-89
2022/06/27 08:16:21;;;;;;;0.00;0.00;;;19.20;99.90;;;;;;4932962;29;20042;-90
2022/06/27 08:18:48;;;;;;;1.10;0.13;;;19.20;99.90;;;;;;4932903;29;20395;-90
2022/06/27 08:21:17;;;;;;;0.20;0.20;;;19.40;99.90;;;;;;4933155;29;20114;-91
2022/06/27 08:23:44;;;;;;;0.00;0.00;;;20.50;99.90;;;;;;4922859;28;20035;-90
2022/06/27 08:26:10;;;;;;;;;;;21.20;99.90;;;;;;4949949;28;20027;-92
2022/06/27 08:28:37;;;;;;;0.00;0.00;;;20.80;99.90;;;;;;4949889;28;19910;-92
2022/06/27 08:31:07;;;;;;;0.00;0.00;;;20.40;99.90;;;;;;4949628;29;20042;-88
2022/06/27 08:33:34;;;;;;;0.00;0.00;;;19.80;99.90;;;;;;4949949;29;20498;-90
2022/06/27 08:36:00;;;;;;;;;;;19.30;99.90;;;;;;4932454;29;20038;-90
2022/06/27 08:38:25;;;;;;;0.00;0.00;;;18.80;99.90;;;;;;4932072;29;19914;-91
2022/06/27 08:40:53;;;;;;;0.00;0.00;;;18.60;99.90;;;;;;4949997;28;20027;-90
2022/06/27 08:43:19;;;;;;;0.00;0.00;;;18.40;99.90;;;;;;4949590;28;20027;-90
2022/06/27 08:45:46;;;;;;;0.10;0.10;;;18.40;99.90;;;;;;4941350;29;20027;-91
2022/06/27 08:48:14;;;;;;;0.00;0.00;;;18.40;99.90;;;;;;4930016;29;20039;-90
2022/06/27 08:50:41;;;;;;;0.00;0.00;;;19.00;99.90;;;;;;4907856;29;1184263;-90
2022/06/27 08:53:07;;;;;;;;;;;19.90;99.90;;;;;;4937843;29;20146;-90
2022/06/27 08:55:34;;;;;;;0.32;0.15;;;20.50;99.90;;;;;;4941384;29;19907;-90
2022/06/27 08:58:06;;;;;;;;;;;19.80;99.90;;;;;;4938147;28;20039;-81
2022/06/27 09:00:34;;;;;;;0.00;0.00;;;19.30;99.90;;;;;;4937836;28;19925;-82
2022/06/27 09:03:00;;;;;;;0.00;0.00;;;19.70;99.90;;;;;;4940296;29;20062;-82
2022/06/27 09:05:27;;;;;;;0.23;0.23;;;19.40;99.90;;;;;;4937737;29;20066;-82
2022/06/27 09:07:59;;;;;;;0.10;0.03;;;19.20;99.90;;;;;;4938335;28;20011;-82
2022/06/27 09:10:34;;;;;;;0.03;0.03;;;19.30;99.90;;;;;;4920242;29;20178;-82
2022/06/27 09:13:08;;;;;;;0.10;0.10;;;19.10;99.90;;;;;;4940779;28;20039;-82
2022/06/27 09:15:48;;;;;;;0.22;0.20;;;19.10;99.90;;;;;;4941308;29;20410;-81
2022/06/27 09:18:17;;;;;;;0.00;0.00;;;19.20;99.90;;;;;;4940348;29;20032;-82
2022/06/27 09:21:09;;;;;;;0.00;0.00;;;19.40;99.90;;;;;;4940381;28;20035;-82
2022/06/27 09:23:50;;;;;;;0.20;0.15;;;19.80;99.90;;;;;;4940072;29;20031;-82
2022/06/27 09:26:21;;;;;;;0.00;0.00;;;19.30;99.90;;;;;;4935246;29;20086;-81
2022/06/27 09:29:01;;;;;;;0.00;0.00;;;19.30;99.90;;;;;;4934214;28;20451;-82
2022/06/27 09:31:27;;;;;;;0.05;0.05;;;19.30;99.90;;;;;;4918648;29;20185;-82
2022/06/27 09:34:20;;;;;;;0.70;0.20;;;19.40;99.90;;;;;;4937067;29;20040;-81
2022/06/27 09:36:58;;;;;;;0.10;0.10;;;19.30;99.90;;;;;;4938277;29;21018;-82
2022/06/27 09:39:34;;;;;;;0.00;0.00;;;19.70;99.90;;;;;;4923380;29;20040;-82
2022/06/27 09:42:01;;;;;;;0.30;0.30;;;20.10;99.90;;;;;;4940266;29;22172;-81
2022/06/27 09:44:30;;;;;;;0.35;0.25;;;20.50;99.90;;;;;;4938980;29;20035;-82
2022/06/27 09:47:09;;;;;;;0.13;0.05;;;21.80;99.90;;;;;;4938712;29;20874;-82
2022/06/27 09:49:38;;;;;;;0.00;0.00;;;23.40;99.90;;;;;;4921541;29;20404;-84
2022/06/27 09:52:09;;;;;;;0.10;0.10;;;23.30;99.90;;;;;;4922229;29;20045;-82
2022/06/27 09:54:36;;;;;;;0.17;0.10;;;24.20;99.90;;;;;;4936838;28;20082;-82
2022/06/27 09:57:03;;;;;;;0.00;0.00;;;23.20;99.90;;;;;;4939892;28;20030;-82
2022/06/27 09:59:29;;;;;;;0.00;0.00;;;21.80;99.90;;;;;;4938630;28;20038;-81
2022/06/27 10:02:00;;;;;;;0.32;0.32;;;21.10;99.90;;;;;;4938108;29;20030;-82
2022/06/27 10:04:28;;;;;;;0.10;0.10;;;20.50;99.90;;;;;;4921432;29;20138;-81
2022/06/27 10:06:58;;;;;;;0.05;0.05;;;20.10;99.90;;;;;;4932991;29;20440;-81
2022/06/27 10:09:25;;;;;;;0.20;0.20;;;20.20;99.90;;;;;;4926529;28;20028;-82
2022/06/27 10:12:09;;;;;;;;;;;20.50;99.90;;;;;;4931447;29;20027;-81
2022/06/27 10:14:35;;;;;;;0.10;0.10;;;21.70;99.90;;;;;;4942682;28;19914;-81
2022/06/27 10:17:01;;;;;;;0.00;0.00;;;24.00;99.90;;;;;;4927701;29;20499;-81
2022/06/27 10:19:28;;;;;;;0.20;0.20;;;25.10;99.90;;;;;;4941151;29;20113;-81
2022/06/27 10:21:56;;;;;;;0.00;0.00;;;24.10;99.90;;;;;;4926654;29;20039;-81
2022/06/27 10:24:22;;;;;;;0.08;0.08;;;22.40;99.90;;;;;;4941695;29;20242;-83
2022/06/27 10:26:49;;;;;;;0.20;0.20;;;21.70;99.90;;;;;;4941381;29;20575;-82
2022/06/27 10:29:28;;;;;;;0.00;0.00;;;21.50;99.90;;;;;;4924451;29;20279;-84
2022/06/27 10:31:54;;;;;;;0.00;0.00;;;21.40;99.90;;;;;;4941896;28;20114;-82
2022/06/27 10:34:40;;;;;;;0.35;0.15;;;21.50;99.90;;;;;;4940683;28;20383;-80
2022/06/27 10:37:24;;;;;;;0.10;0.10;;;22.90;99.90;;;;;;4932082;28;20099;-81
2022/06/27 10:40:19;;;;;;;0.00;0.00;;;23.30;99.90;;;;;;4931198;29;20043;-81
2022/06/27 10:42:49;;;;;;;0.28;0.20;;;26.40;99.90;;;;;;4864883;29;20041;-82
2022/06/27 10:45:21;;;;;;;0.00;0.00;;;26.60;98.40;;;;;;4863867;29;20226;-81
2022/06/27 10:47:48;;;;;;;0.82;0.22;;;26.50;99.90;;;;;;4862412;29;20504;-83
2022/06/27 10:50:16;;;;;;;0.00;0.00;;;26.10;97.20;;;;;;4861975;29;20114;-83
2022/06/27 10:52:42;;;;;;;0.00;0.00;;;25.10;99.90;;;;;;4857449;29;20533;-83
2022/06/27 10:55:26;;;;;;;0.25;0.25;;;24.10;99.90;;;;;;4864119;29;20056;-84
2022/06/27 10:57:54;;;;;;;0.30;0.30;;;23.70;99.90;;;;;;4866376;29;20084;-89
2022/06/27 11:00:39;;;;;;;0.52;0.35;;;23.30;99.90;;;;;;4848539;29;20093;-90
2022/06/27 11:03:08;;;;;;;0.00;0.00;;;22.20;99.90;;;;;;4867296;29;20041;-89
2022/06/27 11:05:58;;;;;;;0.30;0.30;;;21.90;99.90;;;;;;4868788;29;20703;-89
2022/06/27 11:08:25;;;;;;;0.17;0.17;;;22.50;99.90;;;;;;4868960;29;20093;-90
2022/06/27 11:10:51;;;;;;;0.00;0.00;;;22.70;99.90;;;;;;4870430;29;20029;-90
2022/06/27 11:13:44;;;;;;;0.32;0.32;;;22.40;99.90;;;;;;4867035;29;20052;-90
2022/06/27 11:16:17;;;;;;;0.00;0.00;;;22.00;99.90;;;;;;4865173;29;20193;-91
2022/06/27 11:19:00;;;;;;;0.38;0.38;;;22.60;99.90;;;;;;4846165;28;20045;-90
2022/06/27 11:21:37;;;;;;;4.05;0.47;;;23.00;99.90;;;;;;4931110;29;20031;-90
2022/06/27 11:24:09;;;;;;;0.00;0.00;;;22.90;99.90;;;;;;4929918;29;20039;-90
2022/06/27 11:26:54;;;;;;;0.00;0.00;;;23.30;99.90;;;;;;4923485;29;20086;-90
2022/06/27 11:32:11;;;;;;;0.10;0.10;;;23.30;99.90;;;;;;4945843;28;20058;-90
2022/06/27 11:34:39;;;;;;;0.40;0.35;;;22.80;99.90;;;;;;4947074;28;20043;-90
2022/06/27 11:37:14;;;;;;;0.10;0.10;;;22.60;99.90;;;;;;4942793;28;20026;-89
2022/06/27 11:39:40;;;;;;;0.00;0.00;;;22.70;99.90;;;;;;4931342;28;20039;-89
2022/06/27 11:42:11;;;;;;;0.10;0.10;;;22.80;99.90;;;;;;4946822;28;20042;-89
2022/06/27 11:44:38;;;;;;;0.28;0.28;;;23.00;99.90;;;;;;4945422;28;20143;-89
2022/06/27 11:47:08;;;;;;;0.00;0.00;;;22.90;99.90;;;;;;4937900;28;20536;-91
2022/06/27 11:49:37;;;;;;;0.25;0.25;;;22.30;96.70;;;;;;4951533;28;20046;-91
2022/06/27 11:52:06;;;;;;;0.03;0.00;;;22.00;99.90;;;;;;4941848;28;20039;-89
2022/06/27 11:54:45;;;;;;;2.13;0.40;;;22.40;99.90;;;;;;4929847;29;20438;-87
2022/06/27 11:57:28;;;;;;;0.00;0.00;;;22.80;99.90;;;;;;4934223;28;20455;-88
2022/06/27 11:59:56;;;;;;;0.00;0.00;;;23.20;99.90;;;;;;4935740;28;20036;-90
2022/06/27 12:02:34;;;;;;;3.72;0.35;;;23.20;99.90;;;;;;4925411;28;20448;-89
2022/06/27 12:05:22;;;;;;;0.28;0.28;;;22.60;99.90;;;;;;4938179;28;20066;-89
2022/06/27 12:08:01;;;;;;;0.00;0.00;;;22.50;99.90;;;;;;4948525;28;20508;-89
2022/06/27 12:13:41;;;;;;;0.00;0.00;;;23.60;99.90;;;;;;4940995;29;20175;-90
2022/06/27 12:16:10;;;;;;;0.25;0.00;;;23.40;99.90;;;;;;4936259;28;20798;-90
2022/06/27 12:18:37;;;;;;;0.15;0.15;;;23.30;99.90;;;;;;4946379;28;20119;-89
2022/06/27 12:21:03;;;;;;;0.03;0.03;;;23.10;99.90;;;;;;4925545;28;20770;-89
2022/06/27 12:23:30;;;;;;;0.30;0.30;;;23.00;99.90;;;;;;4940058;29;20031;-90
2022/06/27 12:25:56;;;;;;;0.10;0.10;;;23.00;99.90;;;;;;4943279;28;20031;-90
2022/06/27 12:28:22;;;;;;;0.10;0.10;;;22.90;99.90;;;;;;4939145;28;20027;-90
2022/06/27 12:30:48;;;;;;;0.13;0.10;;;23.10;99.90;;;;;;4937998;28;20062;-90
2022/06/27 12:33:13;;;;;;;0.17;0.17;;;22.80;99.90;;;;;;4920993;29;20514;-89
2022/06/27 12:35:39;;;;;;;0.57;0.53;;;22.80;99.90;;;;;;4933607;28;20415;-90
2022/06/27 12:38:07;;;;;;;0.00;0.00;;;23.00;99.90;;;;;;4942345;28;20161;-89
2022/06/27 12:40:33;;;;;;;0.00;0.00;;;23.20;99.90;;;;;;4944114;28;20050;-87
2022/06/27 12:42:59;;;;;;;0.00;0.00;;;22.60;99.90;;;;;;4931219;29;20419;-90
2022/06/27 12:45:25;;;;;;;0.45;0.38;;;22.60;99.90;;;;;;4930599;29;20043;-90
2022/06/27 12:47:50;;;;;;;0.13;0.08;;;22.90;99.90;;;;;;4943866;28;20027;-90
2022/06/27 12:50:16;;;;;;;0.00;0.00;;;22.80;97.30;;;;;;4948046;28;20468;-90
2022/06/27 12:52:43;;;;;;;0.00;0.00;;;23.00;94.70;;;;;;4944535;28;20079;-90
2022/06/27 12:55:09;;;;;;;0.00;0.00;;;23.50;94.70;;;;;;4950441;28;20071;-89
2022/06/27 12:57:35;;;;;;;2.95;0.95;;;23.40;97.30;;;;;;4946559;28;20166;-90
2022/06/27 13:00:02;;;;;;;0.20;0.20;;;23.30;96.20;;;;;;4945517;28;20578;-90
2022/06/27 13:02:28;;;;;;;0.35;0.30;;;23.30;96.80;;;;;;4946618;29;20283;-90
2022/06/27 13:04:54;;;;;;;0.00;0.00;;;23.80;98.40;;;;;;4946550;28;20043;-90